sensor_id;sensor_type;location;lat;lon;timestamp;pressure;altitude;pressure_sealevel;temperature;humidity
13767;BME280;47980;48.794;9.176;2022-12-16T03:00:55;97106.50;;;-0.20;94.47
13767;BME280;47980;48.794;9.176;2022-12-16T03:03:35;97101.09;;;-0.23;93.84
13767;BME280;47980;48.794;9.176;2022-12-16T03:06:13;97115.41;;;-0.21;95.21
13767;BME280;47980;48.794;9.176;2022-12-16T03:08:50;97104.25;;;-0.27;93.12
13767;BME280;47980;48.794;9.176;2022-12-16T03:25:25;97120.19;;;-0.33;93.09
13767;BME280;47980;48.794;9.176;2022-12-16T03:30:45;97107.56;;;-0.45;94.15
13767;BME280;47980;48.794;9.176;2022-12-16T03:41:31;97130.13;;;-0.35;95.17
13767;BME280;47980;48.794;9.176;2022-12-16T03:57:45;97146.84;;;-0.36;95.57
13767;BME280;47980;48.794;9.176;2022-12-16T04:00:17;97143.56;;;-0.47;93.90
13767;BME280;47980;48.794;9.176;2022-12-16T04:02:49;97152.69;;;-0.26;93.62
13767;BME280;47980;48.794;9.176;2022-12-16T04:05:21;97156.34;;;-0.51;93.68
13767;BME280;47980;48.794;9.176;2022-12-16T04:07:54;97160.06;;;-0.57;93.48
13767;BME280;47980;48.794;9.176;2022-12-16T04:10:28;97168.22;;;-0.39;94.07
13767;BME280;47980;48.794;9.176;2022-12-16T04:13:20;97165.78;;;-0.31;92.50
13767;BME280;47980;48.794;9.176;2022-12-16T04:16:13;97167.53;;;-0.26;92.31
13767;BME280;47980;48.794;9.176;2022-12-16T04:19:05;97161.03;;;-0.53;92.40
13767;BME280;47980;48.794;9.176;2022-12-16T04:21:54;97166.72;;;-0.45;92.70
13767;BME280;47980;48.794;9.176;2022-12-16T04:24:43;97178.53;;;-0.58;93.29
13767;BME280;47980;48.794;9.176;2022-12-16T04:27:15;97165.34;;;-0.67;92.87
13767;BME280;47980;48.794;9.176;2022-12-16T04:29:58;97174.38;;;-0.59;92.89
13767;BME280;47980;48.794;9.176;2022-12-16T04:32:52;97187.09;;;-0.53;93.27
13767;BME280;47980;48.794;9.176;2022-12-16T04:36:06;97187.78;;;-0.42;93.32
13767;BME280;47980;48.794;9.176;2022-12-16T04:39:10;97182.84;;;-0.43;92.71
13767;BME280;47980;48.794;9.176;2022-12-16T04:42:02;97189.47;;;-0.56;92.92
13767;BME280;47980;48.794;9.176;2022-12-16T05:14:26;97217.38;;;-0.33;93.66
13767;BME280;47980;48.794;9.176;2022-12-16T05:49:24;97276.19;;;-0.27;92.28
13767;BME280;47980;48.794;9.176;2022-12-16T05:52:13;97269.56;;;-0.14;91.13
13767;BME280;47980;48.794;9.176;2022-12-16T05:55:03;97276.78;;;-0.35;90.39
13767;BME280;47980;48.794;9.176;2022-12-16T05:57:52;97283.78;;;-0.30;90.71
13767;BME280;47980;48.794;9.176;2022-12-16T06:00:44;97290.88;;;-0.36;90.39
13767;BME280;47980;48.794;9.176;2022-12-16T06:03:34;97288.28;;;-0.36;90.92
13767;BME280;47980;48.794;9.176;2022-12-16T06:06:24;97295.66;;;-0.48;91.51
13767;BME280;47980;48.794;9.176;2022-12-16T06:09:13;97296.41;;;-0.47;91.50
13767;BME280;47980;48.794;9.176;2022-12-16T06:12:02;97301.59;;;-0.42;91.76
13767;BME280;47980;48.794;9.176;2022-12-16T06:14:51;97303.22;;;-0.52;89.35
13767;BME280;47980;48.794;9.176;2022-12-16T06:17:41;97310.47;;;-0.43;90.84
13767;BME280;47980;48.794;9.176;2022-12-16T06:20:30;97312.50;;;-0.35;90.25
13767;BME280;47980;48.794;9.176;2022-12-16T06:23:21;97320.78;;;-0.33;91.58
13767;BME280;47980;48.794;9.176;2022-12-16T06:26:10;97319.41;;;-0.20;91.57
13767;BME280;47980;48.794;9.176;2022-12-16T06:28:59;97321.78;;;-0.24;90.74
13767;BME280;47980;48.794;9.176;2022-12-16T06:31:48;97334.66;;;-0.04;89.87
13767;BME280;47980;48.794;9.176;2022-12-16T06:34:37;97340.47;;;-0.17;89.57
13767;BME280;47980;48.794;9.176;2022-12-16T06:37:26;97335.53;;;-0.18;91.09
13767;BME280;47980;48.794;9.176;2022-12-16T06:40:16;97342.31;;;-0.17;90.17
13767;BME280;47980;48.794;9.176;2022-12-16T06:43:05;97351.81;;;-0.03;88.36
13767;BME280;47980;48.794;9.176;2022-12-16T06:45:54;97358.66;;;-0.12;88.86
13767;BME280;47980;48.794;9.176;2022-12-16T06:48:43;97359.72;;;-0.13;88.49
13767;BME280;47980;48.794;9.176;2022-12-16T06:51:32;97360.97;;;-0.05;89.05
13767;BME280;47980;48.794;9.176;2022-12-16T06:54:21;97372.53;;;-0.16;87.61
13767;BME280;47980;48.794;9.176;2022-12-16T06:57:26;97374.59;;;-0.13;88.08
13767;BME280;47980;48.794;9.176;2022-12-16T07:00:15;97384.41;;;-0.05;87.99
13767;BME280;47980;48.794;9.176;2022-12-16T07:03:04;97391.69;;;-0.02;87.52
13767;BME280;47980;48.794;9.176;2022-12-16T07:05:56;97386.59;;;-0.17;85.84
13767;BME280;47980;48.794;9.176;2022-12-16T07:08:45;97399.47;;;0.03;86.56
13767;BME280;47980;48.794;9.176;2022-12-16T07:11:34;97400.75;;;0.35;88.34
13767;BME280;47980;48.794;9.176;2022-12-16T07:14:24;97410.34;;;0.44;87.47
13767;BME280;47980;48.794;9.176;2022-12-16T07:17:14;97407.53;;;0.36;85.60
13767;BME280;47980;48.794;9.176;2022-12-16T07:20:04;97421.72;;;-0.10;87.29
13767;BME280;47980;48.794;9.176;2022-12-16T07:22:54;97432.41;;;-0.06;86.25
13767;BME280;47980;48.794;9.176;2022-12-16T07:25:42;97432.78;;;0.11;86.54
13767;BME280;47980;48.794;9.176;2022-12-16T07:28:31;97429.19;;;0.02;85.93
13767;BME280;47980;48.794;9.176;2022-12-16T07:31:22;97432.28;;;0.09;86.88
13767;BME280;47980;48.794;9.176;2022-12-16T07:34:11;97429.44;;;0.06;86.20
13767;BME280;47980;48.794;9.176;2022-12-16T07:37:00;97435.00;;;-0.06;85.90
13767;BME280;47980;48.794;9.176;2022-12-16T07:39:48;97441.47;;;0.02;85.04
13767;BME280;47980;48.794;9.176;2022-12-16T07:42:40;97440.69;;;0.01;85.04
13767;BME280;47980;48.794;9.176;2022-12-16T07:45:29;97443.66;;;-0.16;84.71
13767;BME280;47980;48.794;9.176;2022-12-16T07:48:19;97454.78;;;-0.05;84.80
13767;BME280;47980;48.794;9.176;2022-12-16T07:51:08;97461.84;;;-0.06;84.13
13767;BME280;47980;48.794;9.176;2022-12-16T07:53:57;97463.75;;;0.18;85.17
13767;BME280;47980;48.794;9.176;2022-12-16T07:56:46;97473.06;;;0.29;83.51
13767;BME280;47980;48.794;9.176;2022-12-16T07:59:35;97477.81;;;0.22;82.29
13767;BME280;47980;48.794;9.176;2022-12-16T08:02:24;97473.25;;;0.38;84.10
13767;BME280;47980;48.794;9.176;2022-12-16T08:05:14;97479.72;;;0.45;83.83
13767;BME280;47980;48.794;9.176;2022-12-16T08:08:04;97483.69;;;0.67;81.35
13767;BME280;47980;48.794;9.176;2022-12-16T08:10:53;97483.41;;;0.68;81.31
13767;BME280;47980;48.794;9.176;2022-12-16T08:13:42;97494.81;;;0.48;79.08
13767;BME280;47980;48.794;9.176;2022-12-16T08:16:31;97501.09;;;0.47;79.51
13767;BME280;47980;48.794;9.176;2022-12-16T08:19:20;97504.09;;;0.60;79.25
13767;BME280;47980;48.794;9.176;2022-12-16T08:22:10;97501.19;;;0.32;79.06
13767;BME280;47980;48.794;9.176;2022-12-16T08:24:59;97510.94;;;0.56;77.80
13767;BME280;47980;48.794;9.176;2022-12-16T08:27:52;97512.47;;;0.57;78.16
13767;BME280;47980;48.794;9.176;2022-12-16T08:30:42;97524.53;;;0.53;77.14
13767;BME280;47980;48.794;9.176;2022-12-16T08:33:31;97528.19;;;0.52;76.37
13767;BME280;47980;48.794;9.176;2022-12-16T08:36:25;97534.59;;;0.64;76.17
13767;BME280;47980;48.794;9.176;2022-12-16T08:39:16;97533.19;;;0.77;76.37
13767;BME280;47980;48.794;9.176;2022-12-16T08:42:05;97539.56;;;0.61;74.91
13767;BME280;47980;48.794;9.176;2022-12-16T08:44:54;97545.16;;;0.49;76.84
13767;BME280;47980;48.794;9.176;2022-12-16T08:47:43;97542.72;;;0.58;74.80
13767;BME280;47980;48.794;9.176;2022-12-16T08:50:32;97550.53;;;0.63;73.88
13767;BME280;47980;48.794;9.176;2022-12-16T08:53:29;97561.06;;;0.82;76.21
13767;BME280;47980;48.794;9.176;2022-12-16T08:56:20;97561.94;;;0.38;76.37
13767;BME280;47980;48.794;9.176;2022-12-16T08:59:09;97570.34;;;0.24;76.11
13767;BME280;47980;48.794;9.176;2022-12-16T09:01:58;97571.34;;;0.34;75.59
13767;BME280;47980;48.794;9.176;2022-12-16T09:04:47;97566.44;;;0.66;74.67
13767;BME280;47980;48.794;9.176;2022-12-16T09:07:36;97584.81;;;0.51;73.25
13767;BME280;47980;48.794;9.176;2022-12-16T09:10:25;97583.91;;;0.66;74.42
13767;BME280;47980;48.794;9.176;2022-12-16T09:13:18;97586.16;;;0.78;73.74
13767;BME280;47980;48.794;9.176;2022-12-16T09:16:07;97592.25;;;0.97;72.92
13767;BME280;47980;48.794;9.176;2022-12-16T09:18:56;97593.84;;;0.98;72.21
13767;BME280;47980;48.794;9.176;2022-12-16T09:21:50;97590.44;;;0.98;70.50
13767;BME280;47980;48.794;9.176;2022-12-16T09:24:39;97591.03;;;0.89;69.66
13767;BME280;47980;48.794;9.176;2022-12-16T09:27:28;97595.28;;;1.38;70.64
13767;BME280;47980;48.794;9.176;2022-12-16T09:30:18;97603.34;;;1.66;68.29
13767;BME280;47980;48.794;9.176;2022-12-16T09:33:07;97602.16;;;1.29;68.58
13767;BME280;47980;48.794;9.176;2022-12-16T09:35:56;97606.91;;;1.27;68.07
13767;BME280;47980;48.794;9.176;2022-12-16T09:38:45;97613.47;;;1.49;67.79
13767;BME280;47980;48.794;9.176;2022-12-16T09:41:40;97611.44;;;1.88;67.01
13767;BME280;47980;48.794;9.176;2022-12-16T09:44:41;97617.56;;;2.03;66.34
13767;BME280;47980;48.794;9.176;2022-12-16T09:47:55;97615.56;;;1.95;66.95
13767;BME280;47980;48.794;9.176;2022-12-16T09:50:47;97617.19;;;1.90;68.83
13767;BME280;47980;48.794;9.176;2022-12-16T09:53:39;97617.28;;;1.32;68.39
13767;BME280;47980;48.794;9.176;2022-12-16T09:56:32;97621.25;;;1.78;67.71
13767;BME280;47980;48.794;9.176;2022-12-16T09:59:26;97628.31;;;1.77;68.67
13767;BME280;47980;48.794;9.176;2022-12-16T10:02:17;97635.31;;;2.06;66.92
13767;BME280;47980;48.794;9.176;2022-12-16T10:05:11;97626.88;;;1.66;66.21
13767;BME280;47980;48.794;9.176;2022-12-16T10:08:04;97632.19;;;1.56;65.49
13767;BME280;47980;48.794;9.176;2022-12-16T10:11:13;97632.63;;;1.68;65.67
13767;BME280;47980;48.794;9.176;2022-12-16T10:14:08;97638.94;;;1.62;66.24
13767;BME280;47980;48.794;9.176;2022-12-16T10:17:03;97634.91;;;1.75;66.55
13767;BME280;47980;48.794;9.176;2022-12-16T10:20:14;97636.06;;;1.63;67.17
13767;BME280;47980;48.794;9.176;2022-12-16T10:23:13;97637.19;;;1.52;65.19
13767;BME280;47980;48.794;9.176;2022-12-16T10:26:07;97640.56;;;1.82;64.80
13767;BME280;47980;48.794;9.176;2022-12-16T10:29:05;97634.09;;;1.74;65.08
13767;BME280;47980;48.794;9.176;2022-12-16T10:31:58;97634.91;;;1.75;65.07
13767;BME280;47980;48.794;9.176;2022-12-16T10:34:53;97635.56;;;1.85;64.66
13767;BME280;47980;48.794;9.176;2022-12-16T10:37:44;97634.72;;;1.66;63.84
13767;BME280;47980;48.794;9.176;2022-12-16T10:40:48;97636.16;;;1.77;65.49
13767;BME280;47980;48.794;9.176;2022-12-16T10:43:42;97637.38;;;2.09;64.70
13767;BME280;47980;48.794;9.176;2022-12-16T10:46:34;97639.81;;;1.52;64.61
13767;BME280;47980;48.794;9.176;2022-12-16T10:49:23;97640.84;;;1.80;63.59
13767;BME280;47980;48.794;9.176;2022-12-16T10:52:12;97645.25;;;2.28;62.67
13767;BME280;47980;48.794;9.176;2022-12-16T10:55:11;97639.53;;;2.45;60.58
13767;BME280;47980;48.794;9.176;2022-12-16T10:58:14;97655.59;;;2.14;62.33
13767;BME280;47980;48.794;9.176;2022-12-16T11:01:20;97659.38;;;1.84;62.54
13767;BME280;47980;48.794;9.176;2022-12-16T11:04:28;97659.47;;;2.22;61.68
13767;BME280;47980;48.794;9.176;2022-12-16T11:07:26;97659.41;;;1.55;64.11
13767;BME280;47980;48.794;9.176;2022-12-16T11:10:28;97659.41;;;0.52;64.60
13767;BME280;47980;48.794;9.176;2022-12-16T11:13:21;97665.59;;;1.35;64.70
13767;BME280;47980;48.794;9.176;2022-12-16T11:16:16;97663.88;;;1.78;63.88
13767;BME280;47980;48.794;9.176;2022-12-16T11:19:17;97666.97;;;1.56;62.76
13767;BME280;47980;48.794;9.176;2022-12-16T11:22:12;97679.84;;;1.77;62.14
13767;BME280;47980;48.794;9.176;2022-12-16T11:25:12;97670.72;;;2.22;61.73
13767;BME280;47980;48.794;9.176;2022-12-16T11:28:04;97662.63;;;1.47;60.60
13767;BME280;47980;48.794;9.176;2022-12-16T11:30:56;97673.03;;;2.00;59.71
13767;BME280;47980;48.794;9.176;2022-12-16T11:33:48;97672.78;;;2.25;60.85
13767;BME280;47980;48.794;9.176;2022-12-16T11:36:40;97684.59;;;2.17;60.65
13767;BME280;47980;48.794;9.176;2022-12-16T11:39:30;97671.31;;;1.37;61.74
13767;BME280;47980;48.794;9.176;2022-12-16T11:42:21;97684.22;;;1.23;62.18
13767;BME280;47980;48.794;9.176;2022-12-16T11:45:14;97676.28;;;1.38;61.01
13767;BME280;47980;48.794;9.176;2022-12-16T11:48:10;97680.34;;;2.03;60.76
13767;BME280;47980;48.794;9.176;2022-12-16T11:51:01;97676.16;;;2.26;60.78
13767;BME280;47980;48.794;9.176;2022-12-16T11:53:53;97675.91;;;1.50;60.24
13767;BME280;47980;48.794;9.176;2022-12-16T11:56:48;97691.50;;;1.60;61.93
13767;BME280;47980;48.794;9.176;2022-12-16T11:59:40;97690.63;;;1.94;60.50
13767;BME280;47980;48.794;9.176;2022-12-16T12:02:33;97694.44;;;1.78;60.58
13767;BME280;47980;48.794;9.176;2022-12-16T12:05:28;97689.00;;;1.74;60.42
13767;BME280;47980;48.794;9.176;2022-12-16T12:08:24;97693.19;;;1.75;61.83
13767;BME280;47980;48.794;9.176;2022-12-16T12:11:21;97696.97;;;1.88;59.90
13767;BME280;47980;48.794;9.176;2022-12-16T12:14:17;97699.63;;;2.31;61.09
13767;BME280;47980;48.794;9.176;2022-12-16T12:17:19;97707.69;;;2.34;59.14
13767;BME280;47980;48.794;9.176;2022-12-16T12:20:28;97714.88;;;1.76;59.80
13767;BME280;47980;48.794;9.176;2022-12-16T12:23:36;97712.66;;;2.36;59.82
13767;BME280;47980;48.794;9.176;2022-12-16T12:26:31;97714.53;;;2.11;61.31
13767;BME280;47980;48.794;9.176;2022-12-16T12:29:29;97731.44;;;2.19;59.74
13767;BME280;47980;48.794;9.176;2022-12-16T12:32:27;97735.16;;;2.13;59.78
13767;BME280;47980;48.794;9.176;2022-12-16T12:35:36;97736.72;;;1.61;62.36
13767;BME280;47980;48.794;9.176;2022-12-16T12:38:36;97734.00;;;2.00;61.37
13767;BME280;47980;48.794;9.176;2022-12-16T12:41:40;97732.25;;;1.32;63.22
13767;BME280;47980;48.794;9.176;2022-12-16T12:44:42;97736.06;;;1.74;62.35
13767;BME280;47980;48.794;9.176;2022-12-16T12:47:41;97744.50;;;1.66;62.41
13767;BME280;47980;48.794;9.176;2022-12-16T12:50:39;97745.94;;;1.53;62.54
13767;BME280;47980;48.794;9.176;2022-12-16T12:53:38;97758.59;;;1.36;63.25
13767;BME280;47980;48.794;9.176;2022-12-16T12:56:39;97759.56;;;1.45;62.36
13767;BME280;47980;48.794;9.176;2022-12-16T12:59:37;97751.13;;;1.19;64.94
13767;BME280;47980;48.794;9.176;2022-12-16T13:02:37;97751.16;;;1.53;64.15
13767;BME280;47980;48.794;9.176;2022-12-16T13:05:31;97746.84;;;1.67;64.42
13767;BME280;47980;48.794;9.176;2022-12-16T13:08:42;97750.09;;;1.83;63.85
13767;BME280;47980;48.794;9.176;2022-12-16T13:11:31;97752.78;;;2.02;62.36
13767;BME280;47980;48.794;9.176;2022-12-16T13:14:53;97764.00;;;1.79;62.26
13767;BME280;47980;48.794;9.176;2022-12-16T13:18:18;97755.78;;;1.90;62.27
13767;BME280;47980;48.794;9.176;2022-12-16T13:21:42;97766.16;;;1.72;63.34
13767;BME280;47980;48.794;9.176;2022-12-16T13:24:39;97764.94;;;1.59;62.29
13767;BME280;47980;48.794;9.176;2022-12-16T13:27:45;97771.66;;;1.70;63.12
13767;BME280;47980;48.794;9.176;2022-12-16T13:30:34;97780.94;;;1.86;62.06
13767;BME280;47980;48.794;9.176;2022-12-16T13:33:27;97786.31;;;2.00;61.98
13767;BME280;47980;48.794;9.176;2022-12-16T13:36:17;97790.53;;;1.96;61.97
13767;BME280;47980;48.794;9.176;2022-12-16T13:39:20;97790.94;;;1.79;62.18
13767;BME280;47980;48.794;9.176;2022-12-16T13:42:50;97793.16;;;1.62;61.85
13767;BME280;47980;48.794;9.176;2022-12-16T13:45:41;97796.94;;;1.46;61.55
13767;BME280;47980;48.794;9.176;2022-12-16T13:48:34;97797.97;;;1.44;64.44
13767;BME280;47980;48.794;9.176;2022-12-16T13:55:10;97808.38;;;1.10;63.46
13767;BME280;47980;48.794;9.176;2022-12-16T13:58:04;97814.19;;;1.41;62.97
13767;BME280;47980;48.794;9.176;2022-12-16T14:00:58;97816.97;;;1.16;63.74
13767;BME280;47980;48.794;9.176;2022-12-16T14:03:51;97821.03;;;1.37;64.48
13767;BME280;47980;48.794;9.176;2022-12-16T14:06:41;97827.97;;;1.52;64.57
13767;BME280;47980;48.794;9.176;2022-12-16T14:09:34;97842.88;;;1.52;63.47
13767;BME280;47980;48.794;9.176;2022-12-16T14:12:45;97849.16;;;1.06;63.52
13767;BME280;47980;48.794;9.176;2022-12-16T14:15:47;97852.41;;;1.32;63.60
13767;BME280;47980;48.794;9.176;2022-12-16T14:18:45;97853.97;;;1.38;64.96
13767;BME280;47980;48.794;9.176;2022-12-16T14:21:41;97854.38;;;1.01;65.68
13767;BME280;47980;48.794;9.176;2022-12-16T14:24:33;97862.47;;;1.10;64.12
13767;BME280;47980;48.794;9.176;2022-12-16T14:27:22;97865.41;;;0.88;64.32
13767;BME280;47980;48.794;9.176;2022-12-16T14:30:15;97867.94;;;1.08;64.87
13767;BME280;47980;48.794;9.176;2022-12-16T14:33:24;97876.06;;;1.07;64.78
13767;BME280;47980;48.794;9.176;2022-12-16T14:36:19;97881.31;;;0.96;65.95
13767;BME280;47980;48.794;9.176;2022-12-16T14:39:11;97886.31;;;0.83;66.68
13767;BME280;47980;48.794;9.176;2022-12-16T14:42:01;97893.63;;;0.91;65.46
13767;BME280;47980;48.794;9.176;2022-12-16T14:44:50;97902.47;;;0.95;65.47
13767;BME280;47980;48.794;9.176;2022-12-16T14:47:39;97904.00;;;1.01;65.63
13767;BME280;47980;48.794;9.176;2022-12-16T14:50:29;97903.81;;;0.82;66.71
13767;BME280;47980;48.794;9.176;2022-12-16T14:53:20;97912.91;;;0.90;66.75
13767;BME280;47980;48.794;9.176;2022-12-16T14:56:14;97914.75;;;0.94;67.81
13767;BME280;47980;48.794;9.176;2022-12-16T14:59:08;97909.81;;;0.78;67.35
13767;BME280;47980;48.794;9.176;2022-12-16T15:01:59;97913.25;;;0.58;68.50
13767;BME280;47980;48.794;9.176;2022-12-16T15:04:50;97921.81;;;0.79;67.07
13767;BME280;47980;48.794;9.176;2022-12-16T15:07:40;97920.50;;;0.76;68.21
13767;BME280;47980;48.794;9.176;2022-12-16T15:10:30;97926.56;;;0.61;67.22
13767;BME280;47980;48.794;9.176;2022-12-16T15:13:21;97919.25;;;0.74;67.46
13767;BME280;47980;48.794;9.176;2022-12-16T15:16:14;97923.97;;;0.56;67.41
13767;BME280;47980;48.794;9.176;2022-12-16T15:19:04;97926.81;;;0.60;68.16
13767;BME280;47980;48.794;9.176;2022-12-16T15:21:59;97932.06;;;0.44;68.07
13767;BME280;47980;48.794;9.176;2022-12-16T15:24:50;97949.03;;;0.52;68.74
13767;BME280;47980;48.794;9.176;2022-12-16T15:27:39;97937.81;;;0.41;68.27
13767;BME280;47980;48.794;9.176;2022-12-16T15:30:34;97941.19;;;0.47;70.22
13767;BME280;47980;48.794;9.176;2022-12-16T15:33:25;97951.91;;;0.40;70.34
13767;BME280;47980;48.794;9.176;2022-12-16T15:36:23;97956.56;;;0.18;69.27
13767;BME280;47980;48.794;9.176;2022-12-16T15:39:18;97967.53;;;0.15;69.80
13767;BME280;47980;48.794;9.176;2022-12-16T15:42:19;97979.25;;;0.17;67.95
13767;BME280;47980;48.794;9.176;2022-12-16T15:45:16;97985.28;;;0.23;70.68
13767;BME280;47980;48.794;9.176;2022-12-16T15:48:11;97987.13;;;0.33;69.85
13767;BME280;47980;48.794;9.176;2022-12-16T15:51:01;97983.22;;;0.40;70.32
13767;BME280;47980;48.794;9.176;2022-12-16T15:54:00;97976.69;;;0.38;71.05
13767;BME280;47980;48.794;9.176;2022-12-16T15:56:49;97989.19;;;0.46;70.81
13767;BME280;47980;48.794;9.176;2022-12-16T15:59:53;97996.47;;;0.29;69.60
13767;BME280;47980;48.794;9.176;2022-12-16T16:02:47;98002.22;;;0.00;71.12
13767;BME280;47980;48.794;9.176;2022-12-16T16:05:36;98008.22;;;0.21;70.08
13767;BME280;47980;48.794;9.176;2022-12-16T16:08:25;98013.19;;;0.38;70.38
13767;BME280;47980;48.794;9.176;2022-12-16T16:11:14;98017.34;;;0.29;70.68
13767;BME280;47980;48.794;9.176;2022-12-16T16:14:03;98020.22;;;0.22;69.53
13767;BME280;47980;48.794;9.176;2022-12-16T16:16:53;98030.91;;;0.15;70.32
13767;BME280;47980;48.794;9.176;2022-12-16T16:19:42;98033.78;;;0.19;70.57
13767;BME280;47980;48.794;9.176;2022-12-16T16:22:31;98041.06;;;0.17;69.67
13767;BME280;47980;48.794;9.176;2022-12-16T16:25:20;98046.56;;;0.20;70.63
13767;BME280;47980;48.794;9.176;2022-12-16T16:28:07;98028.84;;;0.33;71.70
13767;BME280;47980;48.794;9.176;2022-12-16T16:30:57;98040.28;;;0.21;71.21
13767;BME280;47980;48.794;9.176;2022-12-16T16:33:47;98046.28;;;0.12;73.25
13767;BME280;47980;48.794;9.176;2022-12-16T16:36:36;98049.91;;;0.11;70.78
13767;BME280;47980;48.794;9.176;2022-12-16T16:39:24;98043.94;;;0.15;70.57
13767;BME280;47980;48.794;9.176;2022-12-16T16:42:13;98053.56;;;0.05;72.11
13767;BME280;47980;48.794;9.176;2022-12-16T16:45:03;98054.06;;;0.02;71.73
13767;BME280;47980;48.794;9.176;2022-12-16T16:47:54;98053.81;;;-0.02;71.63
13767;BME280;47980;48.794;9.176;2022-12-16T16:50:54;98050.72;;;0.11;71.86
13767;BME280;47980;48.794;9.176;2022-12-16T16:53:44;98046.72;;;-0.12;72.74
13767;BME280;47980;48.794;9.176;2022-12-16T16:56:34;98050.66;;;-0.14;72.01
13767;BME280;47980;48.794;9.176;2022-12-16T16:59:24;98050.69;;;0.01;72.76
13767;BME280;47980;48.794;9.176;2022-12-16T17:02:16;98058.81;;;0.15;72.28
13767;BME280;47980;48.794;9.176;2022-12-16T17:05:06;98065.00;;;0.04;72.72
13767;BME280;47980;48.794;9.176;2022-12-16T17:07:57;98071.47;;;-0.19;74.23
13767;BME280;47980;48.794;9.176;2022-12-16T17:10:46;98077.00;;;-0.06;74.38
13767;BME280;47980;48.794;9.176;2022-12-16T17:13:35;98080.00;;;-0.39;73.90
13767;BME280;47980;48.794;9.176;2022-12-16T17:16:24;98085.53;;;-0.20;74.32
13767;BME280;47980;48.794;9.176;2022-12-16T17:19:13;98084.22;;;-0.23;74.36
13767;BME280;47980;48.794;9.176;2022-12-16T17:22:02;98087.88;;;-0.19;75.98
13767;BME280;47980;48.794;9.176;2022-12-16T17:24:52;98101.75;;;-0.08;74.31
13767;BME280;47980;48.794;9.176;2022-12-16T17:27:42;98102.78;;;-0.09;73.58
13767;BME280;47980;48.794;9.176;2022-12-16T17:30:31;98107.44;;;-0.21;74.44
13767;BME280;47980;48.794;9.176;2022-12-16T17:33:20;98118.72;;;-0.06;75.57
13767;BME280;47980;48.794;9.176;2022-12-16T17:36:10;98116.59;;;-0.09;75.79
13767;BME280;47980;48.794;9.176;2022-12-16T17:38:59;98118.72;;;-0.01;75.75
13767;BME280;47980;48.794;9.176;2022-12-16T17:41:50;98124.97;;;-0.02;74.36
13767;BME280;47980;48.794;9.176;2022-12-16T17:44:40;98130.19;;;-0.02;73.74
13767;BME280;47980;48.794;9.176;2022-12-16T17:47:29;98134.94;;;0.12;74.72
13767;BME280;47980;48.794;9.176;2022-12-16T17:50:18;98136.47;;;0.03;74.91
13767;BME280;47980;48.794;9.176;2022-12-16T17:53:07;98144.81;;;0.05;73.80
13767;BME280;47980;48.794;9.176;2022-12-16T17:56:02;98145.31;;;0.02;74.32
13767;BME280;47980;48.794;9.176;2022-12-16T17:58:52;98148.50;;;-0.39;74.47
13767;BME280;47980;48.794;9.176;2022-12-16T18:01:41;98149.59;;;-0.30;75.46
13767;BME280;47980;48.794;9.176;2022-12-16T18:04:30;98156.47;;;-0.08;76.11
13767;BME280;47980;48.794;9.176;2022-12-16T18:07:19;98153.63;;;-0.07;75.55
13767;BME280;47980;48.794;9.176;2022-12-16T18:10:08;98153.13;;;-0.04;74.43
13767;BME280;47980;48.794;9.176;2022-12-16T18:12:57;98152.25;;;-0.25;75.87
13767;BME280;47980;48.794;9.176;2022-12-16T18:15:51;98159.28;;;-0.25;75.02
13767;BME280;47980;48.794;9.176;2022-12-16T18:18:40;98159.78;;;-0.23;75.15
13767;BME280;47980;48.794;9.176;2022-12-16T18:21:29;98165.56;;;-0.21;74.15
13767;BME280;47980;48.794;9.176;2022-12-16T18:24:14;98171.97;;;-0.34;74.43
13767;BME280;47980;48.794;9.176;2022-12-16T18:27:03;98176.69;;;-0.36;75.55
13767;BME280;47980;48.794;9.176;2022-12-16T18:29:53;98177.94;;;-0.38;75.34
13767;BME280;47980;48.794;9.176;2022-12-16T18:32:43;98174.84;;;-0.35;75.84
13767;BME280;47980;48.794;9.176;2022-12-16T18:35:32;98180.13;;;-0.25;75.75
13767;BME280;47980;48.794;9.176;2022-12-16T18:38:21;98176.44;;;-0.29;75.47
13767;BME280;47980;48.794;9.176;2022-12-16T18:41:19;98184.50;;;-0.31;75.04
13767;BME280;47980;48.794;9.176;2022-12-16T18:44:11;98199.28;;;-0.46;75.73
13767;BME280;47980;48.794;9.176;2022-12-16T18:47:00;98203.25;;;-0.34;76.18
13767;BME280;47980;48.794;9.176;2022-12-16T18:49:50;98205.78;;;-0.44;76.35
13767;BME280;47980;48.794;9.176;2022-12-16T18:52:36;98197.53;;;-0.31;76.33
13767;BME280;47980;48.794;9.176;2022-12-16T18:55:25;98208.72;;;-0.35;76.42
13767;BME280;47980;48.794;9.176;2022-12-16T18:58:14;98213.44;;;-0.32;75.53
13767;BME280;47980;48.794;9.176;2022-12-16T19:01:04;98213.66;;;-0.39;76.55
13767;BME280;47980;48.794;9.176;2022-12-16T19:03:54;98222.16;;;-0.49;76.22
13767;BME280;47980;48.794;9.176;2022-12-16T19:06:44;98215.22;;;-0.38;76.23
13767;BME280;47980;48.794;9.176;2022-12-16T19:09:33;98220.63;;;-0.44;76.25
13767;BME280;47980;48.794;9.176;2022-12-16T19:12:22;98229.09;;;-0.64;77.40
13767;BME280;47980;48.794;9.176;2022-12-16T19:15:11;98232.72;;;-0.65;77.90
13767;BME280;47980;48.794;9.176;2022-12-16T19:18:00;98235.88;;;-0.58;77.58
13767;BME280;47980;48.794;9.176;2022-12-16T19:20:53;98244.63;;;-0.42;77.10
13767;BME280;47980;48.794;9.176;2022-12-16T19:23:43;98241.47;;;-0.44;75.62
13767;BME280;47980;48.794;9.176;2022-12-16T19:26:32;98246.31;;;-0.58;77.30
13767;BME280;47980;48.794;9.176;2022-12-16T19:29:21;98247.84;;;-0.62;76.84
13767;BME280;47980;48.794;9.176;2022-12-16T19:32:10;98248.09;;;-0.64;77.24
13767;BME280;47980;48.794;9.176;2022-12-16T19:34:59;98249.13;;;-0.92;77.64
13767;BME280;47980;48.794;9.176;2022-12-16T19:37:49;98257.00;;;-0.87;78.20
13767;BME280;47980;48.794;9.176;2022-12-16T19:40:47;98264.59;;;-0.80;78.45
13767;BME280;47980;48.794;9.176;2022-12-16T19:43:37;98277.09;;;-0.82;78.58
13767;BME280;47980;48.794;9.176;2022-12-16T19:46:27;98274.78;;;-0.79;78.11
13767;BME280;47980;48.794;9.176;2022-12-16T19:49:15;98276.53;;;-0.84;78.72
13767;BME280;47980;48.794;9.176;2022-12-16T19:52:04;98279.06;;;-0.67;77.87
13767;BME280;47980;48.794;9.176;2022-12-16T19:54:53;98283.72;;;-0.69;77.74
13767;BME280;47980;48.794;9.176;2022-12-16T19:57:44;98294.38;;;-0.71;78.71
13767;BME280;47980;48.794;9.176;2022-12-16T20:00:33;98296.31;;;-0.61;79.01
13767;BME280;47980;48.794;9.176;2022-12-16T20:03:23;98293.75;;;-0.56;79.00